createdAt,value
2018-03-16T00:00:25.362Z,20.79
2018-03-16T00:01:34.263Z,20.8
2018-03-16T00:02:43.179Z,20.79
2018-03-16T00:03:51.838Z,20.79
2018-03-16T00:05:01.272Z,20.79
2018-03-16T00:06:10.448Z,20.87
2018-03-16T00:07:19.636Z,20.84
2018-03-16T00:08:28.607Z,20.79
2018-03-16T00:09:38.055Z,20.79
2018-03-16T00:10:46.953Z,20.77
2018-03-16T00:11:55.902Z,20.79
2018-03-16T00:13:04.588Z,20.79
2018-03-16T00:14:13.808Z,20.66
2018-03-16T00:15:23.036Z,20.79
2018-03-16T00:16:32.474Z,20.8
2018-03-16T00:17:41.648Z,20.8
2018-03-16T00:18:50.339Z,20.77
2018-03-16T00:19:59.265Z,20.74
2018-03-16T00:21:08.712Z,20.66
2018-03-16T00:22:18.146Z,20.7
2018-03-16T00:23:27.059Z,20.77
2018-03-16T00:24:36.511Z,20.72
2018-03-16T00:25:45.493Z,20.73
2018-03-16T00:26:54.656Z,20.69
2018-03-16T00:28:04.096Z,20.72
2018-03-16T00:29:13.034Z,20.67
2018-03-16T00:30:21.714Z,20.72
2018-03-16T00:31:30.651Z,20.64
2018-03-16T00:32:39.358Z,20.69
2018-03-16T00:33:48.294Z,20.76
2018-03-16T00:34:56.969Z,20.72
2018-03-16T00:36:06.157Z,20.69
2018-03-16T00:37:15.482Z,20.7
2018-03-16T00:38:24.955Z,20.69
2018-03-16T00:39:33.882Z,20.7
2018-03-16T00:40:42.905Z,20.7
2018-03-16T00:41:52.152Z,20.7
2018-03-16T00:43:00.813Z,20.7
2018-03-16T00:44:09.740Z,20.67
2018-03-16T00:45:19.179Z,20.72
2018-03-16T00:46:28.421Z,20.7
2018-03-16T00:47:37.366Z,20.76
2018-03-16T00:48:46.575Z,20.66
2018-03-16T00:49:55.789Z,20.66
2018-03-16T00:51:05.242Z,20.67
2018-03-16T00:52:14.579Z,20.7
2018-03-16T00:53:24.017Z,20.79
2018-03-16T00:54:32.702Z,20.69
2018-03-16T00:55:41.380Z,20.7
2018-03-16T00:56:51.440Z,20.84
2018-03-16T00:58:00.088Z,20.73
2018-03-16T00:59:08.985Z,20.69
2018-03-16T01:00:18.201Z,20.7
2018-03-16T01:01:27.406Z,20.69
2018-03-16T01:02:36.367Z,20.72
2018-03-16T01:03:45.542Z,20.7
2018-03-16T01:04:54.191Z,20.67
2018-03-16T01:06:02.881Z,20.7
2018-03-16T01:07:11.811Z,20.7
2018-03-16T01:08:20.512Z,20.72
2018-03-16T01:09:29.449Z,20.69
2018-03-16T01:10:38.656Z,20.74
2018-03-16T01:11:47.890Z,20.7
2018-03-16T01:12:57.078Z,20.67
2018-03-16T01:14:06.268Z,20.72
2018-03-16T01:15:15.696Z,20.69
2018-03-16T01:16:24.622Z,20.73
2018-03-16T01:17:33.827Z,20.67
2018-03-16T01:18:43.014Z,20.7
2018-03-16T01:19:51.915Z,20.7
2018-03-16T01:21:00.935Z,20.67
2018-03-16T01:22:09.896Z,20.69
2018-03-16T01:23:18.814Z,20.72
2018-03-16T01:24:28.043Z,20.66
2018-03-16T01:25:37.053Z,20.66
2018-03-16T01:26:46.500Z,20.73
2018-03-16T01:27:55.792Z,20.69
2018-03-16T01:29:04.742Z,20.74
2018-03-16T01:30:13.931Z,20.69
2018-03-16T01:31:23.365Z,20.64
2018-03-16T01:32:32.281Z,20.7
2018-03-16T01:33:41.208Z,20.67
2018-03-16T01:34:49.872Z,20.72
2018-03-16T01:35:58.548Z,20.7
2018-03-16T01:37:07.704Z,20.72
2018-03-16T01:38:17.156Z,20.69
2018-03-16T01:39:26.155Z,20.69
2018-03-16T01:40:35.164Z,20.7
2018-03-16T01:41:44.106Z,20.69
2018-03-16T01:42:53.571Z,20.66
2018-03-16T01:44:02.761Z,20.69
2018-03-16T01:45:11.420Z,20.7
2018-03-16T01:46:20.610Z,20.7
2018-03-16T01:47:29.789Z,20.72
2018-03-16T01:48:39.237Z,20.67
2018-03-16T01:49:48.152Z,20.69
2018-03-16T01:50:56.803Z,20.67
2018-03-16T01:52:05.981Z,20.7
2018-03-16T01:53:15.141Z,20.73
2018-03-16T01:54:24.327Z,20.7
2018-03-16T01:55:33.062Z,20.66
2018-03-16T01:56:42.240Z,20.72
2018-03-16T01:57:51.420Z,20.69
2018-03-16T01:59:00.341Z,20.7
2018-03-16T02:00:10.027Z,20.69
2018-03-16T02:01:18.973Z,20.7
2018-03-16T02:02:27.890Z,20.73
2018-03-16T02:03:37.337Z,20.69
2018-03-16T02:04:46.247Z,20.69
2018-03-16T02:05:55.447Z,20.7
2018-03-16T02:07:04.626Z,20.76
2018-03-16T02:08:14.099Z,20.72
2018-03-16T02:09:23.273Z,20.7
2018-03-16T02:10:32.438Z,20.7
2018-03-16T02:11:41.614Z,20.72
2018-03-16T02:12:50.524Z,20.69
2018-03-16T02:13:59.440Z,20.69
2018-03-16T02:15:08.621Z,20.69
2018-03-16T02:16:17.616Z,20.73
2018-03-16T02:17:26.572Z,20.72
2018-03-16T02:18:35.218Z,20.73
2018-03-16T02:19:44.140Z,20.7
2018-03-16T02:20:53.074Z,20.74
2018-03-16T02:22:01.799Z,20.67
2018-03-16T02:23:11.280Z,20.7
2018-03-16T02:24:20.715Z,20.72
2018-03-16T02:25:29.658Z,20.73
2018-03-16T02:26:39.084Z,20.73
2018-03-16T02:27:48.297Z,20.61
2018-03-16T02:28:57.225Z,20.66
2018-03-16T02:30:06.401Z,20.72
2018-03-16T02:31:15.688Z,20.69
2018-03-16T02:32:24.889Z,20.72
2018-03-16T02:33:34.087Z,20.7
2018-03-16T02:34:43.040Z,20.7
2018-03-16T02:35:51.967Z,20.73
2018-03-16T02:37:01.412Z,20.69
2018-03-16T02:38:10.581Z,20.69
2018-03-16T02:39:19.757Z,20.59
2018-03-16T02:40:28.685Z,20.69
2018-03-16T02:41:37.387Z,20.7
2018-03-16T02:42:46.075Z,20.73
2018-03-16T02:43:54.987Z,20.64
2018-03-16T02:45:04.195Z,20.7
2018-03-16T02:46:13.737Z,20.73
2018-03-16T02:47:22.584Z,20.72
2018-03-16T02:48:32.316Z,20.67
2018-03-16T02:49:41.286Z,20.7
2018-03-16T02:50:50.739Z,20.7
2018-03-16T02:51:59.692Z,20.67
2018-03-16T02:53:09.419Z,20.7
2018-03-16T02:54:19.159Z,20.69
2018-03-16T02:55:28.655Z,20.67
2018-03-16T02:56:37.593Z,20.7
2018-03-16T02:57:46.535Z,20.66
2018-03-16T02:58:56.082Z,20.67
2018-03-16T03:00:04.774Z,20.64
2018-03-16T03:01:13.991Z,20.59
2018-03-16T03:02:23.721Z,20.64
2018-03-16T03:03:33.188Z,20.67
2018-03-16T03:04:42.463Z,20.72
2018-03-16T03:05:51.394Z,20.67
2018-03-16T03:07:01.113Z,20.66
2018-03-16T03:08:10.297Z,20.67
2018-03-16T03:09:19.738Z,20.69
2018-03-16T03:10:28.667Z,20.72
2018-03-16T03:11:37.612Z,20.72
2018-03-16T03:12:46.826Z,20.62
2018-03-16T03:13:55.479Z,20.64
2018-03-16T03:15:04.922Z,20.67
2018-03-16T03:16:14.096Z,20.67
2018-03-16T03:17:22.740Z,20.61
2018-03-16T03:18:31.674Z,20.66
2018-03-16T03:19:41.109Z,20.66
2018-03-16T03:20:49.758Z,20.64
2018-03-16T03:21:58.720Z,20.66
2018-03-16T03:23:07.624Z,20.62
2018-03-16T03:24:17.053Z,20.7
2018-03-16T03:25:25.701Z,20.67
2018-03-16T03:26:34.905Z,20.66
2018-03-16T03:27:43.817Z,20.67
2018-03-16T03:28:52.985Z,20.62
2018-03-16T03:30:02.424Z,20.62
2018-03-16T03:31:11.896Z,20.64
2018-03-16T03:32:21.572Z,20.61
2018-03-16T03:33:30.522Z,20.61
2018-03-16T03:34:39.978Z,20.61
2018-03-16T03:35:49.143Z,20.54
2018-03-16T03:36:58.067Z,20.62
2018-03-16T03:38:07.515Z,20.62
2018-03-16T03:39:16.720Z,20.57
2018-03-16T03:40:25.886Z,20.58
2018-03-16T03:41:34.804Z,20.59
2018-03-16T03:42:43.997Z,20.62
2018-03-16T03:43:53.219Z,20.62
2018-03-16T03:45:02.443Z,20.59
2018-03-16T03:46:11.357Z,20.62
2018-03-16T03:47:20.278Z,20.61
2018-03-16T03:48:29.996Z,20.59
2018-03-16T03:49:39.231Z,20.5
2018-03-16T03:50:48.146Z,20.59
2018-03-16T03:51:57.154Z,20.64
2018-03-16T03:53:06.080Z,20.64
2018-03-16T03:54:15.021Z,20.62
2018-03-16T03:55:24.250Z,20.64
2018-03-16T03:56:33.164Z,20.61
2018-03-16T03:57:42.107Z,20.54
2018-03-16T03:58:51.034Z,20.66
2018-03-16T04:00:00.205Z,20.61
2018-03-16T04:01:08.904Z,20.64
2018-03-16T04:02:17.585Z,20.62
2018-03-16T04:03:26.503Z,20.66
2018-03-16T04:04:35.421Z,20.64
2018-03-16T04:05:44.338Z,20.62
2018-03-16T04:06:53.249Z,20.61
2018-03-16T04:08:02.175Z,20.66
2018-03-16T04:09:11.721Z,20.62
2018-03-16T04:10:21.169Z,20.59
2018-03-16T04:11:30.104Z,20.64
2018-03-16T04:12:39.287Z,20.61
2018-03-16T04:13:48.231Z,20.61
2018-03-16T04:14:57.206Z,20.55
2018-03-16T04:16:06.891Z,20.55
2018-03-16T04:17:16.097Z,20.57
2018-03-16T04:18:25.784Z,20.61
2018-03-16T04:19:34.710Z,20.58
2018-03-16T04:20:44.201Z,20.62
2018-03-16T04:21:52.842Z,20.55
2018-03-16T04:23:02.312Z,20.57
2018-03-16T04:24:10.980Z,20.55
2018-03-16T04:25:19.918Z,20.57
2018-03-16T04:26:28.810Z,20.55
2018-03-16T04:27:37.983Z,20.54
2018-03-16T04:28:47.189Z,20.55
2018-03-16T04:29:56.658Z,20.61
2018-03-16T04:31:06.371Z,20.57
2018-03-16T04:32:14.985Z,20.55
2018-03-16T04:33:24.158Z,20.58
2018-03-16T04:34:32.779Z,20.61
2018-03-16T04:35:41.940Z,20.54
2018-03-16T04:36:50.840Z,20.5
2018-03-16T04:37:59.758Z,20.52
2018-03-16T04:39:08.406Z,20.55
2018-03-16T04:40:17.576Z,20.59
2018-03-16T04:41:26.756Z,20.62
2018-03-16T04:42:35.927Z,20.55
2018-03-16T04:43:45.370Z,20.51
2018-03-16T04:44:54.557Z,20.52
2018-03-16T04:46:03.493Z,20.59
2018-03-16T04:47:12.156Z,20.57
2018-03-16T04:48:21.408Z,20.57
2018-03-16T04:49:30.900Z,20.54
2018-03-16T04:50:40.079Z,20.57
2018-03-16T04:51:49.030Z,20.52
2018-03-16T04:52:57.993Z,20.55
2018-03-16T04:54:06.949Z,20.57
2018-03-16T04:55:16.190Z,20.57
2018-03-16T04:56:25.646Z,20.5
2018-03-16T04:57:34.860Z,20.59
2018-03-16T04:58:44.291Z,20.55
2018-03-16T04:59:53.741Z,20.55
2018-03-16T05:01:02.887Z,20.52
2018-03-16T05:02:12.357Z,20.52
2018-03-16T05:03:21.269Z,20.47
2018-03-16T05:04:31.451Z,20.55
2018-03-16T05:05:40.403Z,20.61
2018-03-16T05:06:49.053Z,20.57
2018-03-16T05:07:57.728Z,20.55
2018-03-16T05:09:06.884Z,20.55
2018-03-16T05:10:16.055Z,20.59
2018-03-16T05:11:25.232Z,20.55
2018-03-16T05:12:34.455Z,20.54
2018-03-16T05:13:43.377Z,20.54
2018-03-16T05:14:52.564Z,20.55
2018-03-16T05:16:01.759Z,20.54
2018-03-16T05:17:10.681Z,20.48
2018-03-16T05:18:19.852Z,20.47
2018-03-16T05:19:29.025Z,20.43
2018-03-16T05:20:38.458Z,20.58
2018-03-16T05:21:47.440Z,20.57
2018-03-16T05:22:56.623Z,20.43
2018-03-16T05:24:05.558Z,20.42
2018-03-16T05:25:14.460Z,20.43
2018-03-16T05:26:23.626Z,20.51
2018-03-16T05:27:33.063Z,20.43
2018-03-16T05:28:42.253Z,20.55
2018-03-16T05:29:51.703Z,20.55
2018-03-16T05:31:00.623Z,20.55
2018-03-16T05:32:09.548Z,20.42
2018-03-16T05:33:18.972Z,20.41
2018-03-16T05:34:27.935Z,20.52
2018-03-16T05:35:37.379Z,20.52
2018-03-16T05:36:46.044Z,20.57
2018-03-16T05:37:55.249Z,20.66
2018-03-16T05:39:04.277Z,20.7
2018-03-16T05:40:13.185Z,20.66
2018-03-16T05:41:22.403Z,20.72
2018-03-16T05:42:31.573Z,20.69
2018-03-16T05:43:41.266Z,20.77
2018-03-16T05:44:50.209Z,20.82
2018-03-16T05:45:58.880Z,20.85
2018-03-16T05:47:07.563Z,20.97
2018-03-16T05:48:16.720Z,20.94
2018-03-16T05:49:25.654Z,21.01
2018-03-16T05:50:34.849Z,21.04
2018-03-16T05:51:44.330Z,21.13
2018-03-16T05:52:53.777Z,21.19
2018-03-16T05:54:02.724Z,21.31
2018-03-16T05:55:12.460Z,21.27
2018-03-16T05:56:21.634Z,21.34
2018-03-16T05:57:30.549Z,21.46
2018-03-16T05:58:39.227Z,21.37
2018-03-16T05:59:47.898Z,21.56
2018-03-16T06:00:57.558Z,21.56
2018-03-16T06:02:07.022Z,21.56
2018-03-16T06:03:16.454Z,21.62
2018-03-16T06:04:25.939Z,21.68
2018-03-16T06:05:35.359Z,21.75
2018-03-16T06:06:44.284Z,21.8
2018-03-16T06:07:53.246Z,21.83
2018-03-16T06:09:02.689Z,21.88
2018-03-16T06:10:11.616Z,21.88
2018-03-16T06:11:20.788Z,21.98
2018-03-16T06:12:29.983Z,21.9
2018-03-16T06:13:39.185Z,21.98
2018-03-16T06:14:48.118Z,21.96
2018-03-16T06:15:57.575Z,22.09
2018-03-16T06:17:06.750Z,22.02
2018-03-16T06:18:15.919Z,22.09
2018-03-16T06:19:25.636Z,22.12
2018-03-16T06:20:34.828Z,22.25
2018-03-16T06:21:43.990Z,22.2
2018-03-16T06:22:53.167Z,22.22
2018-03-16T06:24:02.110Z,22.22
2018-03-16T06:25:11.284Z,22.2
2018-03-16T06:26:20.447Z,22.3
2018-03-16T06:27:29.652Z,22.37
2018-03-16T06:28:38.840Z,22.37
2018-03-16T06:29:47.504Z,22.45
2018-03-16T06:30:56.522Z,22.39
2018-03-16T06:32:05.696Z,22.49
2018-03-16T06:33:15.191Z,22.58
2018-03-16T06:34:24.401Z,22.54
2018-03-16T06:35:33.596Z,22.55
2018-03-16T06:36:43.067Z,22.64
2018-03-16T06:37:51.999Z,22.57
2018-03-16T06:39:00.908Z,22.6
2018-03-16T06:40:10.352Z,22.68
2018-03-16T06:41:20.059Z,22.76
2018-03-16T06:42:29.546Z,22.79
2018-03-16T06:43:38.486Z,22.79
2018-03-16T06:44:47.440Z,22.83
2018-03-16T06:45:57.138Z,22.86
2018-03-16T06:47:06.583Z,22.82
2018-03-16T06:48:15.255Z,22.73
2018-03-16T06:49:24.250Z,22.73
2018-03-16T06:50:33.176Z,22.73
2018-03-16T06:51:41.848Z,22.82
2018-03-16T06:52:50.528Z,22.77
2018-03-16T06:53:59.195Z,22.8
2018-03-16T06:55:08.383Z,22.82
2018-03-16T06:56:17.819Z,22.82
2018-03-16T06:57:26.759Z,22.83
2018-03-16T06:58:36.004Z,22.83
2018-03-16T06:59:45.175Z,22.86
2018-03-16T07:00:54.369Z,22.85
2018-03-16T07:02:03.095Z,22.83
2018-03-16T07:03:12.585Z,22.86
2018-03-16T07:04:21.809Z,22.86
2018-03-16T07:05:30.986Z,22.92
2018-03-16T07:06:40.443Z,22.91
2018-03-16T07:07:49.973Z,22.9
2018-03-16T07:08:58.933Z,22.91
2018-03-16T07:10:07.874Z,22.9
2018-03-16T07:11:17.594Z,22.88
2018-03-16T07:12:26.240Z,22.94
2018-03-16T07:13:35.210Z,22.9
2018-03-16T07:14:44.201Z,22.92
2018-03-16T07:15:53.124Z,22.97
2018-03-16T07:17:02.665Z,22.97
2018-03-16T07:18:11.332Z,22.97
2018-03-16T07:19:20.249Z,23
2018-03-16T07:20:29.214Z,23
2018-03-16T07:21:38.474Z,23
2018-03-16T07:22:47.394Z,23.07
2018-03-16T07:24:09.321Z,23.07
2018-03-16T07:25:18.512Z,23.05
2018-03-16T07:26:27.706Z,23.05
2018-03-16T07:27:36.385Z,23.05
2018-03-16T07:28:45.072Z,23.07
2018-03-16T07:29:54.014Z,23.04
2018-03-16T07:31:02.946Z,23.13
2018-03-16T07:32:12.181Z,23.07
2018-03-16T07:33:21.090Z,23.12
2018-03-16T07:34:30.558Z,23.12
2018-03-16T07:35:39.461Z,23.07
2018-03-16T07:36:48.887Z,23.05
2018-03-16T07:37:57.542Z,23.09
2018-03-16T07:39:06.742Z,23.04
2018-03-16T07:40:15.923Z,23.1
2018-03-16T07:41:24.835Z,23.01
2018-03-16T07:42:34.283Z,23.02
2018-03-16T07:43:43.220Z,23.05
2018-03-16T07:44:51.882Z,23
2018-03-16T07:46:00.810Z,23
2018-03-16T07:47:09.737Z,22.9
2018-03-16T07:48:18.972Z,22.97
2018-03-16T07:49:28.166Z,22.95
2018-03-16T07:50:37.098Z,22.88
2018-03-16T07:51:46.015Z,22.88
2018-03-16T07:52:54.689Z,22.88
2018-03-16T07:54:03.348Z,22.79
2018-03-16T07:55:12.543Z,22.83
2018-03-16T07:56:21.469Z,22.77
2018-03-16T07:57:30.661Z,22.82
2018-03-16T07:58:39.855Z,22.73
2018-03-16T07:59:49.444Z,22.72
2018-03-16T08:00:59.145Z,22.68
2018-03-16T08:02:08.086Z,22.7
2018-03-16T08:03:16.912Z,22.7
2018-03-16T08:04:26.341Z,22.7
2018-03-16T08:05:35.031Z,22.57
2018-03-16T08:06:44.218Z,22.55
2018-03-16T08:07:53.516Z,22.52
2018-03-16T08:09:02.726Z,22.64
2018-03-16T08:10:12.193Z,22.57
2018-03-16T08:11:21.382Z,22.65
2018-03-16T08:12:30.555Z,22.57
2018-03-16T08:13:39.749Z,22.55
2018-03-16T08:14:49.179Z,22.6
2018-03-16T08:15:58.110Z,22.58
2018-03-16T08:17:06.764Z,22.49
2018-03-16T08:18:16.255Z,22.45
2018-03-16T08:19:25.432Z,22.39
2018-03-16T08:20:34.860Z,22.43
2018-03-16T08:21:44.572Z,22.47
2018-03-16T08:22:53.494Z,22.43
2018-03-16T08:24:02.208Z,22.46
2018-03-16T08:25:10.853Z,22.45
2018-03-16T08:26:19.780Z,22.33
2018-03-16T08:27:28.978Z,22.36
2018-03-16T08:28:38.139Z,22.33
2018-03-16T08:29:46.808Z,22.31
2018-03-16T08:30:56.241Z,22.31
2018-03-16T08:32:05.422Z,22.25
2018-03-16T08:33:14.601Z,22.22
2018-03-16T08:34:23.769Z,22.3
2018-03-16T08:35:32.972Z,22.25
2018-03-16T08:36:42.418Z,22.25
2018-03-16T08:37:51.088Z,22.22
2018-03-16T08:39:00.007Z,22.14
2018-03-16T08:40:09.457Z,22.14
2018-03-16T08:41:18.677Z,22.24
2018-03-16T08:42:27.621Z,22.17
2018-03-16T08:43:36.928Z,22.22
2018-03-16T08:44:46.161Z,22.24
2018-03-16T08:45:54.819Z,22.2
2018-03-16T08:47:03.750Z,22.14
2018-03-16T08:48:12.941Z,22.21
2018-03-16T08:49:22.141Z,22.21
2018-03-16T08:50:31.080Z,22.17
2018-03-16T08:51:40.026Z,22.17
2018-03-16T08:52:48.941Z,22.02
2018-03-16T08:53:57.585Z,22.17
2018-03-16T08:55:06.574Z,22.1
2018-03-16T08:56:15.487Z,22.07
2018-03-16T08:57:24.423Z,22.14
2018-03-16T08:58:33.344Z,22.14
2018-03-16T08:59:42.330Z,21.99
2018-03-16T09:00:51.807Z,21.96
2018-03-16T09:02:01.264Z,21.98
2018-03-16T09:03:10.244Z,21.98
2018-03-16T09:04:19.423Z,21.96
2018-03-16T09:05:28.606Z,21.98
2018-03-16T09:06:38.064Z,21.91
2018-03-16T09:07:47.266Z,22
2018-03-16T09:08:56.967Z,21.9
2018-03-16T09:10:06.147Z,21.99
2018-03-16T09:11:15.337Z,21.92
2018-03-16T09:12:24.555Z,21.96
2018-03-16T09:13:33.812Z,21.98
2018-03-16T09:14:42.744Z,21.96
2018-03-16T09:15:51.967Z,21.92
2018-03-16T09:17:01.170Z,21.94
2018-03-16T09:18:10.125Z,21.8
2018-03-16T09:19:19.404Z,21.9
2018-03-16T09:20:28.591Z,21.74
2018-03-16T09:21:37.757Z,21.88
2018-03-16T09:22:47.480Z,21.74
2018-03-16T09:23:56.156Z,21.82
2018-03-16T09:25:05.329Z,21.79
2018-03-16T09:26:14.551Z,21.8
2018-03-16T09:27:23.480Z,21.72
2018-03-16T09:28:32.429Z,21.77
2018-03-16T09:29:41.865Z,21.75
2018-03-16T09:30:51.070Z,21.69
2018-03-16T09:31:59.980Z,21.75
2018-03-16T09:33:08.630Z,21.74
2018-03-16T09:34:18.340Z,21.74
2018-03-16T09:35:27.800Z,21.71
2018-03-16T09:36:37.073Z,21.72
2018-03-16T09:37:46.012Z,21.68
2018-03-16T09:38:55.202Z,21.69
2018-03-16T09:40:04.117Z,21.65
2018-03-16T09:41:12.777Z,21.64
2018-03-16T09:42:21.679Z,21.65
2018-03-16T09:43:31.140Z,21.68
2018-03-16T09:44:40.055Z,21.67
2018-03-16T09:45:49.238Z,21.68
2018-03-16T09:46:58.937Z,21.67
2018-03-16T09:48:07.595Z,21.65
2018-03-16T09:49:17.284Z,21.64
2018-03-16T09:50:26.232Z,21.68
2018-03-16T09:51:34.921Z,21.65
2018-03-16T09:52:44.635Z,21.65
2018-03-16T09:53:53.846Z,21.64
2018-03-16T09:55:02.822Z,21.67
2018-03-16T09:56:11.776Z,21.61
2018-03-16T09:57:20.734Z,21.65
2018-03-16T09:58:29.684Z,21.64
2018-03-16T09:59:38.352Z,21.62
2018-03-16T10:00:47.554Z,21.65
2018-03-16T10:01:57.026Z,21.65
2018-03-16T10:03:06.044Z,21.62
2018-03-16T10:04:15.089Z,21.64
2018-03-16T10:05:24.023Z,21.65
2018-03-16T10:06:33.509Z,21.69
2018-03-16T10:07:42.960Z,21.65
2018-03-16T10:08:51.894Z,21.67
2018-03-16T10:10:01.366Z,21.61
2018-03-16T10:11:10.012Z,21.69
2018-03-16T10:12:19.483Z,21.65
2018-03-16T10:13:29.194Z,21.65
2018-03-16T10:14:38.118Z,21.68
2018-03-16T10:15:46.810Z,21.67
2018-03-16T10:16:55.736Z,21.68
2018-03-16T10:18:04.713Z,21.68
2018-03-16T10:19:13.383Z,21.65
2018-03-16T10:20:22.314Z,21.62
2018-03-16T10:21:31.482Z,21.65
2018-03-16T10:22:40.709Z,21.62
2018-03-16T10:23:49.627Z,21.65
2018-03-16T10:24:58.599Z,21.65
2018-03-16T10:26:08.297Z,21.58
2018-03-16T10:27:17.209Z,21.64
2018-03-16T10:28:26.659Z,21.68
2018-03-16T10:29:35.584Z,21.72
2018-03-16T10:30:44.767Z,21.74
2018-03-16T10:31:53.685Z,21.68
2018-03-16T10:33:02.357Z,21.68
2018-03-16T10:34:11.527Z,21.71
2018-03-16T10:35:20.691Z,21.74
2018-03-16T10:36:29.856Z,21.74
2018-03-16T10:37:39.310Z,21.75
2018-03-16T10:38:48.482Z,21.71
2018-03-16T10:39:57.159Z,21.79
2018-03-16T10:41:06.617Z,21.71
2018-03-16T10:42:15.808Z,21.72
2018-03-16T10:43:24.450Z,21.72
2018-03-16T10:44:33.354Z,21.8
2018-03-16T10:45:42.063Z,21.74
2018-03-16T10:46:51.758Z,21.77
2018-03-16T10:48:00.936Z,21.75
2018-03-16T10:49:09.828Z,21.72
2018-03-16T10:50:19.268Z,21.75
2018-03-16T10:51:28.436Z,21.77
2018-03-16T10:52:37.886Z,21.74
2018-03-16T10:53:46.800Z,21.72
2018-03-16T10:54:55.472Z,21.71
2018-03-16T10:56:04.126Z,21.77
2018-03-16T10:57:13.302Z,21.74
2018-03-16T10:58:22.222Z,21.79
2018-03-16T10:59:31.153Z,21.8
2018-03-16T11:00:40.586Z,21.79
2018-03-16T11:01:49.523Z,21.79
2018-03-16T11:02:58.961Z,21.77
2018-03-16T11:04:07.886Z,21.79
2018-03-16T11:05:17.377Z,21.71
2018-03-16T11:06:26.292Z,21.74
2018-03-16T11:07:35.231Z,21.74
2018-03-16T11:08:44.177Z,21.8
2018-03-16T11:09:53.365Z,21.69
2018-03-16T11:11:02.563Z,21.74
2018-03-16T11:12:11.212Z,21.75
2018-03-16T11:13:19.882Z,21.77
2018-03-16T11:14:28.895Z,21.69
2018-03-16T11:15:37.817Z,21.75
2018-03-16T11:16:47.274Z,21.75
2018-03-16T11:17:56.180Z,21.77
2018-03-16T11:19:05.416Z,21.74
2018-03-16T11:20:14.847Z,21.74
2018-03-16T11:21:23.505Z,21.75
2018-03-16T11:22:32.682Z,21.74
2018-03-16T11:23:41.898Z,21.75
2018-03-16T11:24:51.111Z,21.71
2018-03-16T11:26:00.350Z,21.72
2018-03-16T11:27:09.268Z,21.69
2018-03-16T11:28:17.938Z,21.75
2018-03-16T11:29:27.128Z,21.65
2018-03-16T11:30:36.055Z,21.65
2018-03-16T11:31:44.992Z,21.68
2018-03-16T11:32:53.898Z,21.69
2018-03-16T11:34:03.339Z,21.71
2018-03-16T11:35:12.255Z,21.72
2018-03-16T11:36:21.454Z,21.69
2018-03-16T11:37:30.388Z,21.59
2018-03-16T11:38:39.912Z,21.68
2018-03-16T11:39:48.841Z,21.75
2018-03-16T11:40:58.004Z,21.77
2018-03-16T11:42:06.939Z,21.68
2018-03-16T11:43:16.134Z,21.65
2018-03-16T11:44:25.057Z,21.62
2018-03-16T11:45:33.704Z,21.67
2018-03-16T11:46:42.624Z,21.67
2018-03-16T11:47:51.290Z,21.65
2018-03-16T11:49:00.719Z,21.67
2018-03-16T11:50:10.419Z,21.65
2018-03-16T11:51:19.105Z,21.65
2018-03-16T11:52:28.535Z,21.65
2018-03-16T11:53:37.716Z,21.65
2018-03-16T11:54:46.682Z,21.74
2018-03-16T11:55:56.122Z,21.65
2018-03-16T11:57:05.032Z,21.71
2018-03-16T11:58:14.730Z,21.75
2018-03-16T11:59:23.661Z,21.74
2018-03-16T12:00:32.603Z,21.72
2018-03-16T12:01:41.539Z,21.74
2018-03-16T12:02:50.493Z,21.74
2018-03-16T12:03:59.405Z,21.79
2018-03-16T12:05:08.575Z,21.74
2018-03-16T12:06:18.031Z,21.69
2018-03-16T12:07:26.769Z,21.75
2018-03-16T12:08:35.418Z,21.69
2018-03-16T12:09:44.313Z,21.74
2018-03-16T12:10:53.515Z,21.74
2018-03-16T12:12:02.439Z,21.69
2018-03-16T12:13:11.882Z,21.68
2018-03-16T12:14:21.052Z,21.75
2018-03-16T12:15:30.229Z,21.72
2018-03-16T12:16:38.871Z,21.75
2018-03-16T12:17:48.300Z,21.75
2018-03-16T12:18:57.464Z,21.77
2018-03-16T12:20:06.649Z,21.75
2018-03-16T12:21:15.886Z,21.79
2018-03-16T12:22:24.542Z,21.74
2018-03-16T12:23:33.219Z,21.75
2018-03-16T12:24:42.428Z,21.8
2018-03-16T12:25:51.341Z,21.77
2018-03-16T12:27:00.564Z,21.83
2018-03-16T12:28:09.983Z,21.72
2018-03-16T12:29:19.182Z,21.72
2018-03-16T12:30:27.864Z,21.83
2018-03-16T12:31:36.788Z,21.82
2018-03-16T12:32:45.977Z,21.75
2018-03-16T12:33:55.137Z,21.8
2018-03-16T12:35:04.565Z,21.79
2018-03-16T12:36:13.780Z,21.88
2018-03-16T12:37:23.228Z,21.72
2018-03-16T12:38:32.466Z,21.75
2018-03-16T12:39:41.758Z,21.77
2018-03-16T12:40:50.958Z,21.72
2018-03-16T12:41:59.895Z,21.77
2018-03-16T12:43:08.848Z,21.77
2018-03-16T12:44:17.808Z,21.71
2018-03-16T12:45:26.740Z,21.8
2018-03-16T12:46:36.440Z,21.77
2018-03-16T12:47:45.885Z,21.8
2018-03-16T12:48:54.897Z,21.74
2018-03-16T12:50:04.122Z,21.72
2018-03-16T12:51:13.065Z,21.69
2018-03-16T12:52:21.997Z,21.79
2018-03-16T12:53:31.449Z,21.71
2018-03-16T12:54:40.713Z,21.69
2018-03-16T12:55:49.678Z,21.72
2018-03-16T12:56:59.371Z,21.69
2018-03-16T12:58:08.808Z,21.67
2018-03-16T12:59:17.728Z,21.74
2018-03-16T13:00:26.650Z,21.65
2018-03-16T13:01:36.093Z,21.77
2018-03-16T13:02:45.359Z,21.77
2018-03-16T13:03:54.537Z,21.74
2018-03-16T13:05:03.473Z,21.67
2018-03-16T13:06:12.971Z,21.65
2018-03-16T13:07:22.399Z,21.65
2018-03-16T13:08:31.568Z,21.64
2018-03-16T13:09:40.763Z,21.62
2018-03-16T13:10:49.929Z,21.65
2018-03-16T13:11:58.842Z,21.71
2018-03-16T13:13:08.024Z,21.65
2018-03-16T13:14:17.798Z,21.65
2018-03-16T13:15:26.986Z,21.61
2018-03-16T13:16:36.153Z,21.62
2018-03-16T13:17:45.075Z,21.65
2018-03-16T13:18:53.725Z,21.62
2018-03-16T13:20:02.651Z,21.64
2018-03-16T13:21:11.566Z,21.64
2018-03-16T13:22:21.039Z,21.64
2018-03-16T13:23:30.763Z,21.65
2018-03-16T13:24:39.723Z,21.67
2018-03-16T13:25:49.458Z,21.62
2018-03-16T13:26:58.642Z,21.64
2018-03-16T13:28:08.370Z,21.61
2018-03-16T13:29:17.339Z,21.65
2018-03-16T13:30:26.270Z,21.64
2018-03-16T13:31:35.224Z,21.64
2018-03-16T13:32:44.185Z,21.67
2018-03-16T13:33:53.319Z,21.58
2018-03-16T13:35:02.762Z,21.68
2018-03-16T13:36:12.212Z,21.53
2018-03-16T13:37:20.855Z,21.67
2018-03-16T13:38:29.770Z,21.53
2018-03-16T13:39:38.940Z,21.53
2018-03-16T13:40:47.658Z,21.54
2018-03-16T13:41:56.858Z,21.52
2018-03-16T13:43:06.051Z,21.54
2018-03-16T13:44:15.545Z,21.56
2018-03-16T13:45:25.258Z,21.58
2018-03-16T13:46:35.221Z,21.54
2018-03-16T13:47:44.394Z,21.53
2018-03-16T13:48:54.168Z,21.54
2018-03-16T13:50:03.363Z,21.56
2018-03-16T13:51:12.813Z,21.56
2018-03-16T13:52:22.018Z,21.59
2018-03-16T13:53:31.510Z,21.54
2018-03-16T13:54:40.941Z,21.54
2018-03-16T13:55:50.152Z,21.52
2018-03-16T13:56:59.338Z,21.56
2018-03-16T13:58:08.251Z,21.58
2018-03-16T13:59:17.960Z,21.5
2018-03-16T14:00:26.634Z,21.62
2018-03-16T14:01:35.571Z,21.53
2018-03-16T14:02:44.732Z,21.56
2018-03-16T14:03:53.429Z,21.54
2018-03-16T14:05:02.614Z,21.5
2018-03-16T14:06:11.789Z,21.52
2018-03-16T14:07:20.957Z,21.37
2018-03-16T14:08:29.872Z,21.49
2018-03-16T14:09:39.062Z,21.44
2018-03-16T14:10:48.492Z,21.46
2018-03-16T14:11:57.672Z,21.37
2018-03-16T14:13:06.842Z,21.44
2018-03-16T14:14:15.760Z,21.4
2018-03-16T14:15:24.402Z,21.46
2018-03-16T14:16:33.625Z,21.42
2018-03-16T14:17:42.790Z,21.35
2018-03-16T14:18:51.965Z,21.42
2018-03-16T14:20:00.876Z,21.46
2018-03-16T14:21:10.304Z,21.44
2018-03-16T14:22:19.603Z,21.43
2018-03-16T14:23:28.796Z,21.42
2018-03-16T14:24:37.441Z,21.32
2018-03-16T14:25:46.893Z,21.42
2018-03-16T14:26:56.165Z,21.44
2018-03-16T14:28:05.354Z,21.4
2018-03-16T14:29:14.356Z,21.34
2018-03-16T14:30:23.041Z,21.35
2018-03-16T14:31:32.484Z,21.35
2018-03-16T14:32:41.153Z,21.32
2018-03-16T14:33:50.611Z,21.4
2018-03-16T14:34:59.278Z,21.4
2018-03-16T14:36:08.464Z,21.4
2018-03-16T14:37:17.654Z,21.46
2018-03-16T14:38:26.812Z,21.4
2018-03-16T14:39:36.517Z,21.34
2018-03-16T14:40:45.994Z,21.4
2018-03-16T14:41:55.521Z,21.44
2018-03-16T14:43:04.728Z,21.43
2018-03-16T14:44:13.929Z,21.44
2018-03-16T14:45:22.902Z,21.47
2018-03-16T14:46:32.337Z,21.46
2018-03-16T14:47:42.350Z,21.35
2018-03-16T14:48:51.265Z,21.34
2018-03-16T14:50:00.704Z,21.47
2018-03-16T14:51:09.422Z,21.35
2018-03-16T14:52:18.348Z,21.4
2018-03-16T14:53:27.612Z,21.29
2018-03-16T14:54:36.827Z,21.34